Time;durP1;ratioP1;P1;durP2;ratioP2;P2;SDS_P1;SDS_P2;PMS_P1;PMS_P2;Temp;Humidity;BMP_temperature;BMP_pressure;BME280_temperature;BME280_humidity;BME280_pressure;Samples;Min_cycle;Max_cycle;Signal;HPM_P1;HPM_P2
2023/12/19 00:02:11;;;;;;;10.63;7.10;;;;;;;;;;5075820;28;20207;-80
2023/12/19 00:04:39;;;;;;;6.23;5.17;;;;;;;;;;5076373;28;20196;-79
2023/12/19 00:07:08;;;;;;;13.43;9.17;;;;;;;;;;5093803;28;20203;-79
2023/12/19 00:09:36;;;;;;;5.57;4.23;;;;;;;;;;5094412;28;20245;-79
2023/12/19 00:12:06;;;;;;;7.60;3.53;;;;;;;;;;5094223;28;20223;-79
2023/12/19 00:14:33;;;;;;;4.90;2.87;;;;;;;;;;5095081;28;20200;-79
2023/12/19 00:17:01;;;;;;;18.53;9.77;;;;;;;;;;5075756;28;20625;-79
2023/12/19 00:19:28;;;;;;;28.40;15.67;;;;;;;;;;5058624;28;20229;-79
2023/12/19 00:21:57;;;;;;;25.03;17.33;;;;;;;;;;5076671;28;20195;-79
2023/12/19 00:24:24;;;;;;;14.30;10.00;;;;;;;;;;5093296;28;20254;-80
2023/12/19 00:26:51;;;;;;;10.70;7.87;;;;;;;;;;5093839;28;20227;-79
2023/12/19 00:29:17;;;;;;;9.37;6.57;;;;;;;;;;5075114;28;20224;-79
2023/12/19 00:31:45;;;;;;;7.10;4.73;;;;;;;;;;5093016;28;20693;-79
2023/12/19 00:34:13;;;;;;;4.50;3.20;;;;;;;;;;5092771;28;20200;-80
2023/12/19 00:36:40;;;;;;;2.90;2.23;;;;;;;;;;5093416;28;20204;-79
2023/12/19 00:39:09;;;;;;;2.40;2.03;;;;;;;;;;5093691;28;20204;-79
2023/12/19 00:41:36;;;;;;;2.13;1.93;;;;;;;;;;5093368;28;20204;-79
2023/12/19 00:44:03;;;;;;;2.17;2.00;;;;;;;;;;5075537;28;20204;-79
2023/12/19 00:46:30;;;;;;;3.83;2.50;;;;;;;;;;5093356;28;20583;-79
2023/12/19 00:48:57;;;;;;;5.73;3.90;;;;;;;;;;5092918;28;20671;-79
2023/12/19 00:51:24;;;;;;;5.07;3.40;;;;;;;;;;5092822;28;20224;-79
2023/12/19 00:53:51;;;;;;;11.37;6.80;;;;;;;;;;5092789;28;20235;-79
2023/12/19 00:56:19;;;;;;;11.47;7.40;;;;;;;;;;5092944;28;20200;-79
2023/12/19 00:58:46;;;;;;;5.83;4.37;;;;;;;;;;5092833;28;20659;-79
2023/12/19 01:01:13;;;;;;;3.40;3.00;;;;;;;;;;5075637;28;20188;-79
2023/12/19 01:03:40;;;;;;;4.23;3.13;;;;;;;;;;5074988;28;20679;-79
2023/12/19 01:06:11;;;;;;;3.03;2.60;;;;;;;;;;5092628;28;20670;-79
2023/12/19 01:08:38;;;;;;;3.77;3.43;;;;;;;;;;5092977;28;20196;-79
2023/12/19 01:11:07;;;;;;;3.00;2.63;;;;;;;;;;5092539;28;20211;-79
2023/12/19 01:13:36;;;;;;;2.90;2.23;;;;;;;;;;5075159;28;20208;-79
2023/12/19 01:16:04;;;;;;;5.07;2.83;;;;;;;;;;5075319;28;20291;-79
2023/12/19 01:18:31;;;;;;;9.90;6.23;;;;;;;;;;5092749;28;20203;-79
2023/12/19 01:20:58;;;;;;;6.30;4.27;;;;;;;;;;5074454;28;20222;-79
2023/12/19 01:23:25;;;;;;;7.20;4.60;;;;;;;;;;5074513;28;20282;-79
2023/12/19 01:25:52;;;;;;;7.10;4.43;;;;;;;;;;5057820;28;20204;-79
2023/12/19 01:28:19;;;;;;;4.23;3.40;;;;;;;;;;5092532;28;20276;-78
2023/12/19 01:30:47;;;;;;;2.60;1.90;;;;;;;;;;5092233;28;20207;-79
2023/12/19 01:33:14;;;;;;;2.00;1.90;;;;;;;;;;5092315;28;20196;-79
2023/12/19 01:35:41;;;;;;;1.77;1.67;;;;;;;;;;5093255;28;20200;-79
2023/12/19 01:38:10;;;;;;;1.50;1.40;;;;;;;;;;5092263;28;20696;-80
2023/12/19 01:40:37;;;;;;;1.93;1.83;;;;;;;;;;5092128;28;20249;-79
2023/12/19 01:43:16;;;;;;;2.03;1.83;;;;;;;;;;5092239;28;20204;-79
2023/12/19 01:45:43;;;;;;;1.80;1.70;;;;;;;;;;5092245;28;20604;-79
2023/12/19 01:48:11;;;;;;;2.07;1.70;;;;;;;;;;5092126;28;20205;-79
2023/12/19 01:50:38;;;;;;;1.93;1.70;;;;;;;;;;5074014;28;20602;-79
2023/12/19 01:53:05;;;;;;;1.63;1.53;;;;;;;;;;5074225;28;20201;-78
2023/12/19 01:55:33;;;;;;;1.77;1.67;;;;;;;;;;5074314;28;20654;-78
2023/12/19 01:58:00;;;;;;;1.53;1.43;;;;;;;;;;5092226;28;20254;-78
2023/12/19 02:00:27;;;;;;;1.90;1.70;;;;;;;;;;5092577;28;20200;-78
2023/12/19 02:02:54;;;;;;;3.27;1.93;;;;;;;;;;5091876;28;20200;-78
2023/12/19 02:05:22;;;;;;;2.17;1.60;;;;;;;;;;5074017;28;20218;-79
2023/12/19 02:07:49;;;;;;;2.20;2.00;;;;;;;;;;5073906;28;20197;-78
2023/12/19 02:10:17;;;;;;;1.47;1.37;;;;;;;;;;5091917;28;20231;-78
2023/12/19 02:12:44;;;;;;;1.67;1.57;;;;;;;;;;5057547;28;20228;-78
2023/12/19 02:15:11;;;;;;;2.10;1.83;;;;;;;;;;5074826;28;20211;-78
2023/12/19 02:17:38;;;;;;;3.17;2.27;;;;;;;;;;5073996;28;20266;-78
2023/12/19 02:20:06;;;;;;;3.40;3.10;;;;;;;;;;5057586;28;20203;-78
2023/12/19 02:22:34;;;;;;;3.30;3.00;;;;;;;;;;5091986;28;20201;-78
2023/12/19 02:25:02;;;;;;;2.27;2.07;;;;;;;;;;5092423;28;20560;-78
2023/12/19 02:27:29;;;;;;;2.03;1.77;;;;;;;;;;5092280;28;20200;-78
2023/12/19 02:29:56;;;;;;;2.50;2.20;;;;;;;;;;5092240;28;20249;-78
2023/12/19 02:32:22;;;;;;;2.07;1.70;;;;;;;;;;5073616;28;20277;-78
2023/12/19 02:34:49;;;;;;;1.97;1.87;;;;;;;;;;5092502;28;20257;-78
2023/12/19 02:37:16;;;;;;;3.50;2.03;;;;;;;;;;5073933;28;20204;-78
2023/12/19 02:39:43;;;;;;;1.40;1.30;;;;;;;;;;5091674;28;20712;-78
2023/12/19 02:42:11;;;;;;;1.57;1.47;;;;;;;;;;5074026;28;20196;-78
2023/12/19 02:44:38;;;;;;;1.87;1.57;;;;;;;;;;5091683;28;20655;-78
2023/12/19 02:47:06;;;;;;;1.97;1.83;;;;;;;;;;5074060;28;20196;-78
2023/12/19 02:49:32;;;;;;;2.00;1.43;;;;;;;;;;5091575;28;20196;-78
2023/12/19 02:51:59;;;;;;;1.50;1.40;;;;;;;;;;5091582;28;20624;-78
2023/12/19 02:54:26;;;;;;;2.23;1.97;;;;;;;;;;5091209;28;20208;-78
2023/12/19 02:56:53;;;;;;;1.70;1.60;;;;;;;;;;5091075;28;20196;-78
2023/12/19 02:59:21;;;;;;;1.90;1.80;;;;;;;;;;5091612;28;20200;-78
2023/12/19 03:01:48;;;;;;;1.77;1.60;;;;;;;;;;5092188;28;20197;-78
2023/12/19 03:04:15;;;;;;;1.97;1.70;;;;;;;;;;5095110;28;20287;-78
2023/12/19 03:06:42;;;;;;;1.60;1.37;;;;;;;;;;5077095;28;20196;-78
2023/12/19 03:09:09;;;;;;;1.20;1.20;;;;;;;;;;5096095;28;20203;-78
2023/12/19 03:11:38;;;;;;;2.50;2.10;;;;;;;;;;5094901;28;20224;-78
2023/12/19 03:14:05;;;;;;;2.73;2.53;;;;;;;;;;5095261;28;20212;-78
2023/12/19 03:16:33;;;;;;;3.83;2.57;;;;;;;;;;5076892;28;20203;-78
2023/12/19 03:19:00;;;;;;;4.23;3.10;;;;;;;;;;5076870;28;20197;-78
2023/12/19 03:21:27;;;;;;;2.33;2.03;;;;;;;;;;5094742;28;20689;-78
2023/12/19 03:23:54;;;;;;;4.60;2.63;;;;;;;;;;5094986;28;20329;-78
2023/12/19 03:26:21;;;;;;;2.93;2.30;;;;;;;;;;5076988;28;20577;-78
2023/12/19 03:28:47;;;;;;;2.17;1.93;;;;;;;;;;5094931;28;20228;-78
2023/12/19 03:31:14;;;;;;;2.27;2.10;;;;;;;;;;5094565;28;20574;-78
2023/12/19 03:33:43;;;;;;;1.67;1.47;;;;;;;;;;5076984;28;20543;-78
2023/12/19 03:36:10;;;;;;;2.63;2.20;;;;;;;;;;5076488;28;20200;-78
2023/12/19 03:38:37;;;;;;;2.17;1.97;;;;;;;;;;5076413;28;20200;-78
2023/12/19 03:41:05;;;;;;;1.50;1.40;;;;;;;;;;5094873;28;20196;-78
2023/12/19 03:43:32;;;;;;;1.40;1.30;;;;;;;;;;5094842;28;20320;-78
2023/12/19 03:46:01;;;;;;;2.60;1.40;;;;;;;;;;5094501;28;20211;-78
2023/12/19 03:48:28;;;;;;;1.40;1.30;;;;;;;;;;5060930;28;20203;-79
2023/12/19 03:50:57;;;;;;;1.40;1.30;;;;;;;;;;5094049;28;20196;-79
2023/12/19 03:53:24;;;;;;;2.27;2.03;;;;;;;;;;5094812;28;20594;-79
2023/12/19 03:55:51;;;;;;;1.57;1.47;;;;;;;;;;5076125;28;20196;-79
2023/12/19 03:58:18;;;;;;;2.40;1.87;;;;;;;;;;5094242;28;20654;-78
2023/12/19 04:00:45;;;;;;;1.57;1.47;;;;;;;;;;5076567;28;20204;-78
2023/12/19 04:03:11;;;;;;;1.73;1.63;;;;;;;;;;5076155;28;20613;-78
2023/12/19 04:05:38;;;;;;;1.60;1.50;;;;;;;;;;5093912;28;20253;-78
2023/12/19 04:08:07;;;;;;;1.50;1.40;;;;;;;;;;5094122;28;20204;-78
2023/12/19 04:10:35;;;;;;;1.50;1.40;;;;;;;;;;5094102;28;20200;-78
2023/12/19 04:13:01;;;;;;;1.53;1.43;;;;;;;;;;5094295;28;20223;-79
2023/12/19 04:15:30;;;;;;;1.70;1.60;;;;;;;;;;5093697;28;20559;-78
2023/12/19 04:17:57;;;;;;;1.30;1.30;;;;;;;;;;5093644;28;20571;-79
2023/12/19 04:20:23;;;;;;;1.37;1.27;;;;;;;;;;5076719;28;20211;-79
2023/12/19 04:22:50;;;;;;;2.90;1.80;;;;;;;;;;5114020;28;20665;-79
2023/12/19 04:25:19;;;;;;;31.53;14.70;;;;;;;;;;5113849;28;20681;-79
2023/12/19 04:27:45;;;;;;;4.17;3.50;;;;;;;;;;5113912;28;20202;-79
2023/12/19 04:30:12;;;;;;;2.90;1.67;;;;;;;;;;5113906;28;20685;-79
2023/12/19 04:32:40;;;;;;;2.57;1.97;;;;;;;;;;5113570;28;20218;-79
2023/12/19 04:35:10;;;;;;;50.43;33.90;;;;;;;;;;5095762;28;20199;-79
2023/12/19 04:37:37;;;;;;;12.27;9.20;;;;;;;;;;5095293;28;20195;-79
2023/12/19 04:40:05;;;;;;;10.50;7.80;;;;;;;;;;5114140;28;20199;-79
2023/12/19 04:42:33;;;;;;;5.00;4.33;;;;;;;;;;5114276;28;20195;-78
2023/12/19 04:45:00;;;;;;;4.50;3.30;;;;;;;;;;5095351;28;20203;-79
2023/12/19 04:47:28;;;;;;;2.97;2.30;;;;;;;;;;5114086;28;20214;-80
2023/12/19 04:49:55;;;;;;;2.43;1.90;;;;;;;;;;5114205;28;20188;-79
2023/12/19 04:52:22;;;;;;;2.77;2.57;;;;;;;;;;5095861;28;20219;-79
2023/12/19 04:54:49;;;;;;;11.33;8.40;;;;;;;;;;5113603;28;20200;-79
2023/12/19 04:57:16;;;;;;;13.83;10.87;;;;;;;;;;5094972;28;20196;-79
2023/12/19 04:59:45;;;;;;;5.87;5.23;;;;;;;;;;5095661;28;20195;-79
2023/12/19 05:02:11;;;;;;;26.33;18.60;;;;;;;;;;5094928;28;20203;-79
2023/12/19 05:04:38;;;;;;;15.17;11.43;;;;;;;;;;5113280;28;20256;-79
2023/12/19 05:07:05;;;;;;;9.70;6.10;;;;;;;;;;5113471;28;20191;-79
2023/12/19 05:09:32;;;;;;;1.97;1.87;;;;;;;;;;5094916;28;20199;-79
2023/12/19 05:11:59;;;;;;;2.67;2.03;;;;;;;;;;5113422;28;20191;-79
2023/12/19 05:14:26;;;;;;;13.83;8.73;;;;;;;;;;5094854;28;20203;-79
2023/12/19 05:16:54;;;;;;;7.93;5.37;;;;;;;;;;5112927;28;20203;-80
2023/12/19 05:19:21;;;;;;;13.77;8.13;;;;;;;;;;5094974;28;20199;-82
2023/12/19 05:21:48;;;;;;;9.70;7.03;;;;;;;;;;5113544;28;20195;-83
2023/12/19 05:24:15;;;;;;;23.63;18.97;;;;;;;;;;5078409;28;20204;-83
2023/12/19 05:26:42;;;;;;;5.00;4.33;;;;;;;;;;5077692;28;20196;-82
2023/12/19 05:29:09;;;;;;;2.90;2.60;;;;;;;;;;5112839;28;20219;-82
2023/12/19 05:31:36;;;;;;;12.77;9.73;;;;;;;;;;5094349;28;20207;-82
2023/12/19 05:34:05;;;;;;;8.13;7.43;;;;;;;;;;5094205;28;20226;-82
2023/12/19 05:36:34;;;;;;;2.57;2.37;;;;;;;;;;5094802;28;20202;-82
2023/12/19 05:39:00;;;;;;;4.93;4.27;;;;;;;;;;5094851;28;20230;-82
2023/12/19 05:41:27;;;;;;;10.30;8.30;;;;;;;;;;5112264;28;20206;-83
2023/12/19 05:43:59;;;;;;;5.43;4.80;;;;;;;;;;5112321;28;20272;-82
2023/12/19 05:46:27;;;;;;;3.83;3.27;;;;;;;;;;5094057;28;20750;-82
2023/12/19 05:48:52;;;;;;;7.90;5.03;;;;;;;;;;5112414;28;20191;-83
2023/12/19 05:51:21;;;;;;;86.33;46.03;;;;;;;;;;5112362;28;20248;-82
2023/12/19 05:53:47;;;;;;;42.40;32.20;;;;;;;;;;5096733;28;20273;-83
2023/12/19 05:56:14;;;;;;;19.17;16.17;;;;;;;;;;5091831;28;20557;-82
2023/12/19 05:58:41;;;;;;;15.50;9.57;;;;;;;;;;5092386;28;20204;-82
2023/12/19 06:01:08;;;;;;;3.33;3.03;;;;;;;;;;5091771;28;20203;-82
2023/12/19 06:03:35;;;;;;;1.57;1.47;;;;;;;;;;5092527;28;20257;-82
2023/12/19 06:06:01;;;;;;;2.27;1.83;;;;;;;;;;5092078;28;20614;-83
2023/12/19 06:08:29;;;;;;;2.23;2.03;;;;;;;;;;5091969;28;20208;-82
2023/12/19 06:10:56;;;;;;;3.97;3.63;;;;;;;;;;5091851;28;20196;-82
2023/12/19 06:13:24;;;;;;;5.63;5.07;;;;;;;;;;5091635;28;20778;-82
2023/12/19 06:15:51;;;;;;;4.33;3.93;;;;;;;;;;5092185;28;20223;-82
2023/12/19 06:18:17;;;;;;;5.90;4.90;;;;;;;;;;5092218;28;20200;-82
2023/12/19 06:20:44;;;;;;;4.47;4.07;;;;;;;;;;5091701;28;20196;-82
2023/12/19 06:23:11;;;;;;;5.87;5.27;;;;;;;;;;5091699;28;20225;-82
2023/12/19 06:25:39;;;;;;;3.00;2.70;;;;;;;;;;5091667;28;20236;-82
2023/12/19 06:28:08;;;;;;;4.30;3.90;;;;;;;;;;5092250;28;20603;-82
2023/12/19 06:30:37;;;;;;;4.87;4.20;;;;;;;;;;5091524;28;20662;-81
2023/12/19 06:33:04;;;;;;;2.00;1.80;;;;;;;;;;5092162;28;20229;-80
2023/12/19 06:35:31;;;;;;;5.10;2.40;;;;;;;;;;5091499;28;20192;-82
2023/12/19 06:37:58;;;;;;;2.70;2.50;;;;;;;;;;5093117;28;20192;-82
2023/12/19 06:40:25;;;;;;;14.13;12.63;;;;;;;;;;5095515;28;20207;-82
2023/12/19 06:42:53;;;;;;;167.60;66.73;;;;;;;;;;5095581;28;20204;-85
2023/12/19 06:45:20;;;;;;;117.27;55.17;;;;;;;;;;5103477;28;20571;-93
2023/12/19 06:47:47;;;;;;;52.63;24.63;;;;;;;;;;5117406;28;20210;-88
2023/12/19 06:50:15;;;;;;;26.77;13.87;;;;;;;;;;5116714;28;20567;-85
2023/12/19 06:52:41;;;;;;;28.17;15.63;;;;;;;;;;5116205;28;20215;-92
2023/12/19 06:55:11;;;;;;;22.30;14.70;;;;;;;;;;5116991;28;20589;-96
2023/12/19 06:57:38;;;;;;;21.03;11.97;;;;;;;;;;5117299;28;20670;-84
2023/12/19 07:00:11;;;;;;;23.07;15.10;;;;;;;;;;5115574;28;20192;-92
2023/12/19 07:02:38;;;;;;;32.03;20.40;;;;;;;;;;5117085;28;20669;-90
2023/12/19 07:05:09;;;;;;;28.77;15.53;;;;;;;;;;5098600;28;20199;-86
2023/12/19 07:07:36;;;;;;;11.37;9.27;;;;;;;;;;5117369;28;20211;-89
2023/12/19 07:10:04;;;;;;;21.33;15.23;;;;;;;;;;5065237;28;20191;-85
2023/12/19 07:12:31;;;;;;;22.37;18.20;;;;;;;;;;5116524;28;20203;-93
2023/12/19 07:14:58;;;;;;;18.03;16.00;;;;;;;;;;5098427;28;20214;-87
2023/12/19 07:17:27;;;;;;;39.10;27.63;;;;;;;;;;5116464;28;20195;-94
2023/12/19 07:19:54;;;;;;;14.30;11.37;;;;;;;;;;5084603;28;20559;-89
2023/12/19 07:22:21;;;;;;;46.13;28.37;;;;;;;;;;5103587;28;20582;-87
2023/12/19 07:24:48;;;;;;;32.00;19.03;;;;;;;;;;5087777;28;20203;-90
2023/12/19 07:27:15;;;;;;;13.47;10.27;;;;;;;;;;5121674;28;20207;-90
2023/12/19 07:29:42;;;;;;;11.63;8.97;;;;;;;;;;5120554;28;20223;-86
2023/12/19 07:32:10;;;;;;;10.00;8.77;;;;;;;;;;5099569;28;20206;-90
2023/12/19 07:34:38;;;;;;;8.77;7.73;;;;;;;;;;5116450;28;20226;-89
2023/12/19 07:37:06;;;;;;;7.57;6.17;;;;;;;;;;5097619;28;20203;-84
2023/12/19 07:39:33;;;;;;;3.40;3.07;;;;;;;;;;5115584;28;20191;-87
2023/12/19 07:42:01;;;;;;;6.83;5.33;;;;;;;;;;5115906;28;20203;-87
2023/12/19 07:44:28;;;;;;;19.60;11.80;;;;;;;;;;5097487;28;20252;-93
2023/12/19 07:46:57;;;;;;;17.30;9.23;;;;;;;;;;5081945;28;20200;-90
2023/12/19 07:49:24;;;;;;;12.57;9.63;;;;;;;;;;5116359;28;20199;-87
2023/12/19 07:51:52;;;;;;;22.67;8.27;;;;;;;;;;5097838;28;20200;-89
2023/12/19 07:54:19;;;;;;;10.97;8.90;;;;;;;;;;5097344;28;20284;-87
2023/12/19 07:56:46;;;;;;;13.93;10.87;;;;;;;;;;5116066;28;20195;-87
2023/12/19 07:59:14;;;;;;;12.87;9.37;;;;;;;;;;5115292;28;20199;-90
2023/12/19 08:01:41;;;;;;;9.47;8.10;;;;;;;;;;5115344;28;20207;-90
2023/12/19 08:04:08;;;;;;;9.33;8.43;;;;;;;;;;5115520;28;20241;-90
2023/12/19 08:06:35;;;;;;;11.47;9.10;;;;;;;;;;5097670;28;20203;-89
2023/12/19 08:09:04;;;;;;;11.80;9.87;;;;;;;;;;5115327;28;20214;-90
2023/12/19 08:11:31;;;;;;;23.23;17.20;;;;;;;;;;5097175;28;20661;-86
2023/12/19 08:13:58;;;;;;;8.87;7.97;;;;;;;;;;5096963;28;20223;-89
2023/12/19 08:16:25;;;;;;;8.83;6.17;;;;;;;;;;5097314;28;20200;-90
2023/12/19 08:18:52;;;;;;;11.00;5.37;;;;;;;;;;5096692;28;20209;-89
2023/12/19 08:21:19;;;;;;;6.03;5.43;;;;;;;;;;5080161;28;20203;-85
2023/12/19 08:23:47;;;;;;;8.10;5.67;;;;;;;;;;5114630;28;20207;-87
2023/12/19 08:26:15;;;;;;;7.87;6.20;;;;;;;;;;5096075;28;20210;-79
2023/12/19 08:28:42;;;;;;;4.53;4.03;;;;;;;;;;5114147;28;20233;-78
2023/12/19 08:31:09;;;;;;;4.33;3.47;;;;;;;;;;5114576;28;20234;-86
2023/12/19 08:33:36;;;;;;;11.90;9.43;;;;;;;;;;5114675;28;20761;-89
2023/12/19 08:36:03;;;;;;;9.67;7.87;;;;;;;;;;5096639;28;20204;-87
2023/12/19 08:38:30;;;;;;;15.67;11.00;;;;;;;;;;5115332;28;20199;-94
2023/12/19 08:40:57;;;;;;;20.63;13.20;;;;;;;;;;5096903;28;20256;-93
2023/12/19 08:43:26;;;;;;;18.10;11.27;;;;;;;;;;5080053;28;20210;-90
2023/12/19 08:45:53;;;;;;;14.07;10.97;;;;;;;;;;5097292;28;20566;-94
2023/12/19 08:48:20;;;;;;;14.87;11.00;;;;;;;;;;5114751;28;20260;-88
2023/12/19 08:50:47;;;;;;;14.43;10.83;;;;;;;;;;5114436;28;20234;-87
2023/12/19 08:53:14;;;;;;;15.30;9.17;;;;;;;;;;5114046;28;20219;-92
2023/12/19 08:55:44;;;;;;;18.10;12.33;;;;;;;;;;5080163;28;20191;-91
2023/12/19 08:58:11;;;;;;;13.00;9.67;;;;;;;;;;5115266;28;20199;-94
2023/12/19 09:00:39;;;;;;;16.43;10.90;;;;;;;;;;5113333;28;20203;-93
2023/12/19 09:03:08;;;;;;;11.60;10.40;;;;;;;;;;5114591;28;20199;-86
2023/12/19 09:05:35;;;;;;;15.43;11.77;;;;;;;;;;5095510;28;20206;-88
2023/12/19 09:08:02;;;;;;;7.77;6.97;;;;;;;;;;5114428;28;20535;-92
2023/12/19 09:10:30;;;;;;;8.67;6.07;;;;;;;;;;5079729;28;20199;-89
2023/12/19 09:12:57;;;;;;;7.13;6.43;;;;;;;;;;5114071;28;20231;-84
2023/12/19 09:15:24;;;;;;;5.93;5.27;;;;;;;;;;5078062;28;20219;-79
2023/12/19 09:17:52;;;;;;;5.10;3.97;;;;;;;;;;5112814;28;20202;-78
2023/12/19 09:20:21;;;;;;;8.37;6.30;;;;;;;;;;5114059;28;20203;-87
2023/12/19 09:22:48;;;;;;;3.40;3.10;;;;;;;;;;5113592;28;20202;-85
2023/12/19 09:25:16;;;;;;;4.73;2.77;;;;;;;;;;5113992;28;20195;-87
2023/12/19 09:27:43;;;;;;;2.40;2.20;;;;;;;;;;5094512;28;20673;-76
2023/12/19 09:30:11;;;;;;;6.27;3.10;;;;;;;;;;5112805;28;20712;-77
2023/12/19 09:32:38;;;;;;;5.30;2.80;;;;;;;;;;5113173;28;20196;-79
2023/12/19 09:35:07;;;;;;;3.77;2.77;;;;;;;;;;5112738;28;20253;-78
2023/12/19 09:37:34;;;;;;;5.33;3.70;;;;;;;;;;5112815;28;20246;-77
2023/12/19 09:40:02;;;;;;;7.47;5.07;;;;;;;;;;5112880;28;20195;-77
2023/12/19 09:42:29;;;;;;;7.50;6.43;;;;;;;;;;5113861;28;20268;-92
2023/12/19 09:44:57;;;;;;;12.53;8.60;;;;;;;;;;5113839;28;20290;-94
2023/12/19 09:47:25;;;;;;;14.27;8.60;;;;;;;;;;5095508;28;20199;-87
2023/12/19 09:49:54;;;;;;;8.23;6.87;;;;;;;;;;5112625;28;20203;-92
2023/12/19 09:52:24;;;;;;;7.37;4.83;;;;;;;;;;5113277;28;20206;-90
2023/12/19 09:54:51;;;;;;;9.70;7.73;;;;;;;;;;5113464;28;20217;-93
2023/12/19 09:57:18;;;;;;;13.13;10.50;;;;;;;;;;5114073;28;20799;-92
2023/12/19 09:59:47;;;;;;;12.50;9.87;;;;;;;;;;5113646;28;20579;-92
2023/12/19 10:02:17;;;;;;;10.20;7.93;;;;;;;;;;5113772;28;20220;-94
2023/12/19 10:04:45;;;;;;;10.03;7.70;;;;;;;;;;5095372;28;20201;-89
2023/12/19 10:07:12;;;;;;;8.97;6.50;;;;;;;;;;5093811;28;20260;-88
2023/12/19 10:09:54;;;;;;;5.80;5.27;;;;;;;;;;5095552;28;20216;-94
2023/12/19 10:12:22;;;;;;;7.60;6.00;;;;;;;;;;5113396;28;20255;-83
2023/12/19 10:14:48;;;;;;;6.60;5.13;;;;;;;;;;5116847;28;20220;-83
2023/12/19 10:17:17;;;;;;;5.90;4.40;;;;;;;;;;5116776;28;20555;-86
2023/12/19 10:19:44;;;;;;;34.20;19.43;;;;;;;;;;5116914;28;20197;-89
2023/12/19 10:22:16;;;;;;;6.97;5.40;;;;;;;;;;5116057;28;20207;-86
2023/12/19 10:24:43;;;;;;;4.20;3.80;;;;;;;;;;5116658;28;20203;-85
2023/12/19 10:27:11;;;;;;;5.03;3.93;;;;;;;;;;5097949;28;20197;-81
2023/12/19 10:29:38;;;;;;;7.80;6.77;;;;;;;;;;5117545;28;20231;-94
2023/12/19 10:32:16;;;;;;;8.20;7.40;;;;;;;;;;5116313;28;20198;-78
2023/12/19 10:34:44;;;;;;;8.17;5.83;;;;;;;;;;5116357;28;20224;-84
2023/12/19 10:37:11;;;;;;;4.00;3.60;;;;;;;;;;5116452;28;20193;-85
2023/12/19 10:39:39;;;;;;;3.73;3.40;;;;;;;;;;5118096;28;20240;-87
2023/12/19 10:42:09;;;;;;;3.87;3.20;;;;;;;;;;5098898;28;20210;-88
2023/12/19 10:44:39;;;;;;;2.87;2.63;;;;;;;;;;5116329;28;20234;-87
2023/12/19 10:47:10;;;;;;;4.93;3.40;;;;;;;;;;5117030;28;20227;-87
2023/12/19 10:49:38;;;;;;;4.30;3.53;;;;;;;;;;5099062;28;20211;-89
2023/12/19 10:52:09;;;;;;;6.80;3.50;;;;;;;;;;5116236;28;20205;-84
2023/12/19 10:54:37;;;;;;;4.50;3.80;;;;;;;;;;5114664;28;20220;-89
2023/12/19 10:57:11;;;;;;;4.10;3.80;;;;;;;;;;5116813;28;20212;-92
2023/12/19 10:59:47;;;;;;;5.23;3.97;;;;;;;;;;5116463;28;20210;-84
2023/12/19 11:02:33;;;;;;;6.50;5.37;;;;;;;;;;5115951;28;20199;-89
2023/12/19 11:05:10;;;;;;;4.93;4.43;;;;;;;;;;5115403;28;20199;-81
2023/12/19 11:07:38;;;;;;;5.03;4.53;;;;;;;;;;5115849;28;20278;-82
2023/12/19 11:10:09;;;;;;;8.03;5.77;;;;;;;;;;5115437;28;20197;-83
2023/12/19 11:12:37;;;;;;;13.70;10.67;;;;;;;;;;5115503;28;20201;-87
2023/12/19 11:15:09;;;;;;;28.67;18.10;;;;;;;;;;5115825;28;20226;-86
2023/12/19 11:17:41;;;;;;;18.30;13.33;;;;;;;;;;5097393;28;20207;-80
2023/12/19 11:20:15;;;;;;;13.60;11.63;;;;;;;;;;5115453;28;20206;-86
2023/12/19 11:22:53;;;;;;;19.40;14.63;;;;;;;;;;5115198;28;20197;-85
2023/12/19 11:25:26;;;;;;;15.83;12.50;;;;;;;;;;5115250;28;20198;-84
2023/12/19 11:28:01;;;;;;;63.67;41.70;;;;;;;;;;5113755;28;20255;-86
2023/12/19 11:30:36;;;;;;;15.17;11.37;;;;;;;;;;5115387;28;20206;-87
2023/12/19 11:33:07;;;;;;;12.63;11.33;;;;;;;;;;5115588;28;20577;-88
2023/12/19 11:35:35;;;;;;;15.03;11.73;;;;;;;;;;5115390;28;20218;-86
2023/12/19 11:38:24;;;;;;;14.47;11.47;;;;;;;;;;5115091;28;20202;-83
2023/12/19 11:40:52;;;;;;;13.20;10.40;;;;;;;;;;5115423;28;20659;-86
2023/12/19 11:43:53;;;;;;;10.10;9.07;;;;;;;;;;5115197;28;20246;-87
2023/12/19 11:46:23;;;;;;;11.47;9.23;;;;;;;;;;5110375;28;20311;-84
2023/12/19 11:48:51;;;;;;;11.77;10.53;;;;;;;;;;5114582;28;20692;-85
2023/12/19 11:51:48;;;;;;;11.77;10.57;;;;;;;;;;5114642;28;20673;-86
2023/12/19 11:54:15;;;;;;;14.90;11.60;;;;;;;;;;5115709;28;20670;-85
2023/12/19 11:56:43;;;;;;;16.77;12.37;;;;;;;;;;5096318;28;20286;-84
2023/12/19 11:59:11;;;;;;;16.77;14.27;;;;;;;;;;5115214;28;20250;-84
2023/12/19 12:01:44;;;;;;;20.03;15.93;;;;;;;;;;5114663;28;20206;-87
2023/12/19 12:04:11;;;;;;;20.57;16.17;;;;;;;;;;5115760;28;20202;-89
2023/12/19 12:06:38;;;;;;;24.40;18.13;;;;;;;;;;5114544;28;20207;-85
2023/12/19 12:09:11;;;;;;;16.43;13.40;;;;;;;;;;5114350;28;20199;-85
2023/12/19 12:11:47;;;;;;;21.63;14.10;;;;;;;;;;5114319;28;20195;-85
2023/12/19 12:14:15;;;;;;;19.10;13.30;;;;;;;;;;5114111;28;20262;-85
2023/12/19 12:16:44;;;;;;;13.80;11.00;;;;;;;;;;5096696;28;20207;-85
2023/12/19 12:19:12;;;;;;;18.93;15.20;;;;;;;;;;5114099;28;20733;-82
2023/12/19 12:21:45;;;;;;;14.23;12.80;;;;;;;;;;5114461;28;20214;-87
2023/12/19 12:24:20;;;;;;;12.57;10.90;;;;;;;;;;5114824;28;20253;-86
2023/12/19 12:26:48;;;;;;;11.27;9.87;;;;;;;;;;5115089;28;20204;-85
2023/12/19 12:29:16;;;;;;;12.30;9.80;;;;;;;;;;5114243;28;20257;-84
2023/12/19 12:31:45;;;;;;;10.53;9.47;;;;;;;;;;5114127;28;20251;-82
2023/12/19 12:34:12;;;;;;;13.00;11.63;;;;;;;;;;5114078;28;20202;-84
2023/12/19 12:36:39;;;;;;;15.47;13.27;;;;;;;;;;5112968;28;20244;-84
2023/12/19 12:39:06;;;;;;;50.87;36.50;;;;;;;;;;5113982;28;20206;-83
2023/12/19 12:41:34;;;;;;;23.53;17.83;;;;;;;;;;5113804;28;20196;-82
2023/12/19 12:44:01;;;;;;;26.90;23.83;;;;;;;;;;5113553;28;20206;-83
2023/12/19 12:46:28;;;;;;;30.20;23.37;;;;;;;;;;5113544;28;20196;-83
2023/12/19 12:49:03;;;;;;;52.20;33.07;;;;;;;;;;5113309;28;20575;-83
2023/12/19 12:51:30;;;;;;;31.23;24.70;;;;;;;;;;5113401;28;20197;-82
2023/12/19 12:54:02;;;;;;;26.43;23.73;;;;;;;;;;5112434;28;20203;-83
2023/12/19 12:56:30;;;;;;;28.87;24.80;;;;;;;;;;5113957;28;20231;-82
2023/12/19 12:59:01;;;;;;;27.23;22.57;;;;;;;;;;5113806;28;20202;-89
2023/12/19 13:01:28;;;;;;;27.53;20.20;;;;;;;;;;5097299;28;20204;-89
2023/12/19 13:03:55;;;;;;;21.23;18.17;;;;;;;;;;5093178;28;20203;-90
2023/12/19 13:06:23;;;;;;;22.77;19.60;;;;;;;;;;5077220;28;20207;-86
2023/12/19 13:08:51;;;;;;;32.90;24.00;;;;;;;;;;5094298;28;20205;-91
2023/12/19 13:11:18;;;;;;;25.87;20.43;;;;;;;;;;5093371;28;20287;-90
2023/12/19 13:13:46;;;;;;;24.13;19.80;;;;;;;;;;5059565;28;20312;-90
2023/12/19 13:16:13;;;;;;;24.57;20.77;;;;;;;;;;5093642;28;20214;-90
2023/12/19 13:18:40;;;;;;;27.00;21.07;;;;;;;;;;5075852;28;20199;-93
2023/12/19 13:21:08;;;;;;;28.70;22.30;;;;;;;;;;5093452;28;20202;-87
2023/12/19 13:23:37;;;;;;;38.53;27.80;;;;;;;;;;5074614;28;20189;-87
2023/12/19 13:26:04;;;;;;;31.20;23.47;;;;;;;;;;5075292;28;20255;-87
2023/12/19 13:28:32;;;;;;;31.23;22.33;;;;;;;;;;5093714;28;20223;-94
2023/12/19 13:30:59;;;;;;;25.83;19.57;;;;;;;;;;5059391;28;20202;-94
2023/12/19 13:33:26;;;;;;;28.13;20.30;;;;;;;;;;5093628;28;20199;-90
2023/12/19 13:35:53;;;;;;;34.57;21.90;;;;;;;;;;5074090;28;20227;-85
2023/12/19 13:38:22;;;;;;;25.60;18.90;;;;;;;;;;5092582;28;20208;-87
2023/12/19 13:40:51;;;;;;;30.43;23.47;;;;;;;;;;5092686;28;20249;-91
2023/12/19 13:43:18;;;;;;;21.07;17.17;;;;;;;;;;5075376;28;20254;-90
2023/12/19 13:45:45;;;;;;;32.17;21.80;;;;;;;;;;5075605;28;20200;-90
2023/12/19 13:48:14;;;;;;;32.77;22.20;;;;;;;;;;5093373;28;20244;-93
2023/12/19 13:50:41;;;;;;;58.37;39.33;;;;;;;;;;5074131;28;20210;-82
2023/12/19 13:53:09;;;;;;;41.87;32.80;;;;;;;;;;5091904;28;20200;-84
2023/12/19 13:55:36;;;;;;;40.10;30.33;;;;;;;;;;5074321;28;20229;-90
2023/12/19 13:58:07;;;;;;;84.83;50.53;;;;;;;;;;5072180;28;20201;-83
2023/12/19 14:00:34;;;;;;;88.77;49.53;;;;;;;;;;5092797;28;20200;-84
2023/12/19 14:03:01;;;;;;;120.70;58.83;;;;;;;;;;5092087;28;20199;-85
2023/12/19 14:05:28;;;;;;;66.37;44.53;;;;;;;;;;5092080;28;20205;-85
2023/12/19 14:07:55;;;;;;;79.13;47.07;;;;;;;;;;5092033;28;20631;-87
2023/12/19 14:10:22;;;;;;;54.10;39.60;;;;;;;;;;5074003;28;20205;-87
2023/12/19 14:12:50;;;;;;;37.90;28.67;;;;;;;;;;5074082;28;20654;-86
2023/12/19 14:15:19;;;;;;;37.83;30.07;;;;;;;;;;5073760;28;20215;-87
2023/12/19 14:17:46;;;;;;;50.63;39.73;;;;;;;;;;5092678;28;20252;-87
2023/12/19 14:20:13;;;;;;;58.87;44.00;;;;;;;;;;5092086;28;20206;-84
2023/12/19 14:22:41;;;;;;;62.47;42.60;;;;;;;;;;5092387;28;20231;-85
2023/12/19 14:25:11;;;;;;;155.83;106.60;;;;;;;;;;5092613;28;20211;-90
2023/12/19 14:27:38;;;;;;;91.97;66.53;;;;;;;;;;5074338;28;20201;-87
2023/12/19 14:30:09;;;;;;;38.90;28.07;;;;;;;;;;5092474;28;20261;-86
2023/12/19 14:32:38;;;;;;;47.73;36.17;;;;;;;;;;5093124;28;20200;-87
2023/12/19 14:35:11;;;;;;;42.63;31.90;;;;;;;;;;5074193;28;20255;-86
2023/12/19 14:37:38;;;;;;;78.03;52.17;;;;;;;;;;5092590;28;20203;-87
2023/12/19 14:40:08;;;;;;;75.00;51.77;;;;;;;;;;5058887;28;20693;-85